Aviation Digital Data Service (ADDS)

Output produced by METARs form (0200 UTC 23 April 2021)
found at http://aviationweather.gov/metar/data/
 
METAR text: KBDU 230155Z AUTO 25012G21KT 7SM -RA SCT004 BKN011 BKN029 08/00 A2977 RMK AO2
Conditions at: KBDU (BOULDER MUNI , CO, US) observed 0155 UTC 23 April 2021
Temperature: 8.0°C (46°F)
Dewpoint: 0.0°C (32°F) [RH = 57%]
Pressure (altimeter): 29.77 inches Hg (1008.2 mb)
Winds: from the WSW (250 degrees) at 14 MPH (12 knots; 6.2 m/s)
gusting to 24 MPH (21 knots; 10.8 m/s)
Visibility: 7 miles (11 km)
Ceiling: 1100 feet AGL
Clouds: scattered clouds at 400 feet AGL
broken clouds at 1100 feet AGL
broken clouds at 2900 feet AGL
Weather: -RA  (light rain)

METAR text: KBDU 230135Z AUTO 26009KT 10SM CLR 09/02 A2979 RMK AO2
Conditions at: KBDU (BOULDER MUNI , CO, US) observed 0135 UTC 23 April 2021
Temperature: 9.0°C (48°F)
Dewpoint: 2.0°C (36°F) [RH = 61%]
Pressure (altimeter): 29.79 inches Hg (1008.9 mb)
Winds: from the W (260 degrees) at 10 MPH (9 knots; 4.6 m/s)
Visibility: 10 or more miles (16+ km)
Ceiling: at least 12,000 feet AGL
Clouds: sky clear below 12,000 feet AGL
Weather: automated observation with no human augmentation;
there may or may not be significant weather present at this time

METAR text: KBDU 230115Z AUTO 00000KT 10SM CLR 08/02 A2977 RMK AO2
Conditions at: KBDU (BOULDER MUNI , CO, US) observed 0115 UTC 23 April 2021
Temperature: 8.0°C (46°F)
Dewpoint: 2.0°C (36°F) [RH = 66%]
Pressure (altimeter): 29.77 inches Hg (1008.2 mb)
Winds: calm
Visibility: 10 or more miles (16+ km)
Ceiling: at least 12,000 feet AGL
Clouds: sky clear below 12,000 feet AGL
Weather: automated observation with no human augmentation;
there may or may not be significant weather present at this time